Time;durP1;ratioP1;P1;durP2;ratioP2;P2;SDS_P1;SDS_P2;PMS_P1;PMS_P2;Temp;Humidity;BMP_temperature;BMP_pressure;BME280_temperature;BME280_humidity;BME280_pressure;Samples;Min_cycle;Max_cycle;Signal;HPM_P1;HPM_P2
2022/11/22 00:01:29;;;;;;;2.00;1.57;;;;;;;;;;4975737;28;20565;-89
2022/11/22 00:03:55;;;;;;;1.97;1.80;;;;;;;;;;4982952;28;20494;-89
2022/11/22 00:06:23;;;;;;;2.85;1.60;;;;;;;;;;5006210;28;20423;-89
2022/11/22 00:08:49;;;;;;;1.95;1.45;;;;;;;;;;4984216;28;20189;-89
2022/11/22 00:11:15;;;;;;;2.03;1.93;;;;;;;;;;4988719;28;20616;-91
2022/11/22 00:13:41;;;;;;;1.73;1.67;;;;;;;;;;5007152;28;20805;-89
2022/11/22 00:16:08;;;;;;;1.20;1.20;;;;;;;;;;4990554;28;20495;-88
2022/11/22 00:18:36;;;;;;;2.67;1.45;;;;;;;;;;4986261;28;20945;-89
2022/11/22 00:21:06;;;;;;;3.10;1.60;;;;;;;;;;5008416;28;20674;-89
2022/11/22 00:23:32;;;;;;;3.20;2.30;;;;;;;;;;5002349;28;20859;-88
2022/11/22 00:25:58;;;;;;;3.00;1.90;;;;;;;;;;5007372;28;20189;-87
2022/11/22 00:28:24;;;;;;;2.00;1.43;;;;;;;;;;5005494;28;20775;-87
2022/11/22 00:30:50;;;;;;;4.37;2.00;;;;;;;;;;5010912;28;20447;-88
2022/11/22 00:33:16;;;;;;;2.10;1.73;;;;;;;;;;5004769;28;20455;-88
2022/11/22 00:35:44;;;;;;;5.00;2.43;;;;;;;;;;4993589;28;20517;-88
2022/11/22 00:38:10;;;;;;;1.87;1.80;;;;;;;;;;4986587;28;21017;-87
2022/11/22 00:40:36;;;;;;;1.20;1.20;;;;;;;;;;5007107;28;20522;-89
2022/11/22 00:43:11;;;;;;;1.70;1.60;;;;;;;;;;4979921;28;20463;-89
2022/11/22 00:45:37;;;;;;;3.40;1.80;;;;;;;;;;4981169;28;20482;-89
2022/11/22 00:48:03;;;;;;;2.10;2.10;;;;;;;;;;4977141;28;22363;-87
2022/11/22 00:50:30;;;;;;;2.60;2.50;;;;;;;;;;4989509;28;20824;-89
2022/11/22 00:52:57;;;;;;;2.08;1.98;;;;;;;;;;4974131;28;20456;-88
2022/11/22 00:55:23;;;;;;;2.10;1.97;;;;;;;;;;4989049;28;20651;-87
2022/11/22 00:57:49;;;;;;;2.10;2.10;;;;;;;;;;4987058;28;20463;-88
2022/11/22 01:00:15;;;;;;;1.80;1.80;;;;;;;;;;4967810;28;20471;-87
2022/11/22 01:02:41;;;;;;;2.22;2.03;;;;;;;;;;4988389;28;20746;-88
2022/11/22 01:05:07;;;;;;;1.23;1.23;;;;;;;;;;4990580;28;20208;-88
2022/11/22 01:07:33;;;;;;;2.10;2.00;;;;;;;;;;4986856;28;20455;-88
2022/11/22 01:09:59;;;;;;;1.60;1.60;;;;;;;;;;4989955;28;20197;-88
2022/11/22 01:12:25;;;;;;;2.00;1.90;;;;;;;;;;4987033;28;20819;-87
2022/11/22 01:14:51;;;;;;;2.40;1.88;;;;;;;;;;4989250;28;20189;-88
2022/11/22 01:17:18;;;;;;;1.13;1.13;;;;;;;;;;4987489;28;20336;-88
2022/11/22 01:19:44;;;;;;;1.73;1.63;;;;;;;;;;4993276;28;20433;-88
2022/11/22 01:22:10;;;;;;;1.97;1.97;;;;;;;;;;4995246;28;20439;-88
2022/11/22 01:24:36;;;;;;;2.70;1.90;;;;;;;;;;4997730;28;20475;-88
2022/11/22 01:27:02;;;;;;;4.50;2.20;;;;;;;;;;4981191;28;20232;-88
2022/11/22 01:29:28;;;;;;;6.50;2.00;;;;;;;;;;5005920;28;20240;-89
2022/11/22 01:31:54;;;;;;;3.40;1.73;;;;;;;;;;5013303;28;20209;-87
2022/11/22 01:34:20;;;;;;;2.20;2.00;;;;;;;;;;5004721;28;20185;-88
2022/11/22 01:36:46;;;;;;;4.95;1.08;;;;;;;;;;4995238;28;20200;-88
2022/11/22 01:39:12;;;;;;;1.50;1.50;;;;;;;;;;5000157;28;20286;-87
2022/11/22 01:41:38;;;;;;;2.53;2.40;;;;;;;;;;4984248;28;20204;-90
2022/11/22 01:44:17;;;;;;;2.65;2.65;;;;;;;;;;4994442;28;20203;-87
2022/11/22 01:46:44;;;;;;;3.45;2.25;;;;;;;;;;4985007;28;20687;-87
2022/11/22 01:49:28;;;;;;;3.03;2.75;;;;;;;;;;4994630;28;20188;-88
2022/11/22 01:51:58;;;;;;;2.00;1.93;;;;;;;;;;4981289;28;20201;-90
2022/11/22 01:54:25;;;;;;;2.50;2.40;;;;;;;;;;4996139;28;20459;-88
2022/11/22 01:56:53;;;;;;;3.92;2.67;;;;;;;;;;4995029;28;20439;-91
2022/11/22 01:59:22;;;;;;;5.03;2.70;;;;;;;;;;5007750;28;20367;-91
2022/11/22 02:01:48;;;;;;;2.20;2.10;;;;;;;;;;5005039;28;20204;-89
2022/11/22 02:04:16;;;;;;;3.17;2.80;;;;;;;;;;5010675;28;20459;-91
2022/11/22 02:06:50;;;;;;;2.33;2.23;;;;;;;;;;5008761;28;20201;-92
2022/11/22 02:09:16;;;;;;;3.13;2.80;;;;;;;;;;5007777;28;20426;-92
2022/11/22 02:11:50;;;;;;;3.43;2.40;;;;;;;;;;4997457;28;20216;-92
2022/11/22 02:14:18;;;;;;;3.55;2.22;;;;;;;;;;5013706;28;20588;-92
2022/11/22 02:16:45;;;;;;;2.85;1.85;;;;;;;;;;4995371;28;20557;-93
2022/11/22 02:19:19;;;;;;;3.22;2.10;;;;;;;;;;5000934;28;20226;-92
2022/11/22 02:21:48;;;;;;;4.25;2.25;;;;;;;;;;4980368;28;20212;-91
2022/11/22 02:24:19;;;;;;;6.50;2.30;;;;;;;;;;5001609;28;20231;-90
2022/11/22 02:26:45;;;;;;;2.70;2.25;;;;;;;;;;5002053;28;20188;-90
2022/11/22 02:29:12;;;;;;;2.23;1.93;;;;;;;;;;5016748;28;20219;-90
2022/11/22 02:31:42;;;;;;;4.10;2.97;;;;;;;;;;4992924;28;20486;-90
2022/11/22 02:34:09;;;;;;;4.53;2.92;;;;;;;;;;4992110;28;20435;-89
2022/11/22 02:36:38;;;;;;;8.67;2.80;;;;;;;;;;4981788;28;20200;-90
2022/11/22 02:39:06;;;;;;;3.55;2.92;;;;;;;;;;5001499;28;20930;-90
2022/11/22 02:41:33;;;;;;;3.08;1.95;;;;;;;;;;4988352;28;20208;-91
2022/11/22 02:44:03;;;;;;;3.97;2.37;;;;;;;;;;4991068;28;20979;-90
2022/11/22 02:46:32;;;;;;;3.40;2.60;;;;;;;;;;5002425;28;20447;-90
2022/11/22 02:48:58;;;;;;;3.15;2.95;;;;;;;;;;4993691;28;20188;-91
2022/11/22 02:51:25;;;;;;;2.63;2.03;;;;;;;;;;4990750;28;20204;-92
2022/11/22 02:53:52;;;;;;;6.65;2.60;;;;;;;;;;4994335;28;20443;-92
2022/11/22 02:56:19;;;;;;;4.10;3.80;;;;;;;;;;4991971;28;20208;-90
2022/11/22 02:58:46;;;;;;;4.50;2.00;;;;;;;;;;5003134;28;20435;-90
2022/11/22 03:01:12;;;;;;;3.83;2.77;;;;;;;;;;5013132;28;20456;-91
2022/11/22 03:03:38;;;;;;;2.72;2.63;;;;;;;;;;5015683;28;20455;-92
2022/11/22 03:06:04;;;;;;;4.73;2.20;;;;;;;;;;5027839;28;20187;-92
2022/11/22 03:08:30;;;;;;;6.50;3.07;;;;;;;;;;4994155;28;20467;-91
2022/11/22 03:10:57;;;;;;;5.60;3.00;;;;;;;;;;4990566;28;20988;-91
2022/11/22 03:13:42;;;;;;;2.45;2.22;;;;;;;;;;4992798;28;20470;-91
2022/11/22 03:16:08;;;;;;;2.90;2.70;;;;;;;;;;4990955;28;20196;-92
2022/11/22 03:18:35;;;;;;;2.83;2.57;;;;;;;;;;4992690;28;20499;-91
2022/11/22 03:21:02;;;;;;;6.53;3.10;;;;;;;;;;4990298;28;21108;-91
2022/11/22 03:23:32;;;;;;;4.30;1.85;;;;;;;;;;5009970;28;20188;-91
2022/11/22 03:25:58;;;;;;;2.97;1.95;;;;;;;;;;4990160;28;20236;-92
2022/11/22 03:28:25;;;;;;;3.55;2.30;;;;;;;;;;4992739;28;20220;-91
2022/11/22 03:30:51;;;;;;;8.27;2.33;;;;;;;;;;5007687;28;20207;-92
2022/11/22 03:33:17;;;;;;;3.25;2.10;;;;;;;;;;4992048;28;20180;-91
2022/11/22 03:35:43;;;;;;;2.93;2.13;;;;;;;;;;4990407;28;20181;-91
2022/11/22 03:38:11;;;;;;;4.00;2.10;;;;;;;;;;4993985;28;20470;-91
2022/11/22 03:40:40;;;;;;;6.68;3.25;;;;;;;;;;5010759;28;20430;-91
2022/11/22 03:43:06;;;;;;;5.82;2.05;;;;;;;;;;4992027;28;20224;-90
2022/11/22 03:45:32;;;;;;;4.78;2.33;;;;;;;;;;5006296;28;20209;-91
2022/11/22 03:47:58;;;;;;;3.70;2.80;;;;;;;;;;4992187;28;20200;-90
2022/11/22 03:50:24;;;;;;;3.47;3.00;;;;;;;;;;5007572;28;20930;-91
2022/11/22 03:52:50;;;;;;;4.47;1.95;;;;;;;;;;4993374;28;20412;-92
2022/11/22 03:55:17;;;;;;;7.27;3.77;;;;;;;;;;4999865;28;20612;-91
2022/11/22 03:58:12;;;;;;;2.83;2.70;;;;;;;;;;5021387;28;20681;-91
2022/11/22 04:00:38;;;;;;;2.92;2.80;;;;;;;;;;4986702;28;20250;-91
2022/11/22 04:03:04;;;;;;;3.10;2.13;;;;;;;;;;4995210;28;20183;-91
2022/11/22 04:05:30;;;;;;;3.53;2.28;;;;;;;;;;4992661;28;20204;-91
2022/11/22 04:08:02;;;;;;;4.33;2.17;;;;;;;;;;4993522;28;20172;-94
2022/11/22 04:10:28;;;;;;;6.32;2.17;;;;;;;;;;4981930;28;20442;-90
2022/11/22 04:12:58;;;;;;;4.30;2.40;;;;;;;;;;4987756;28;20196;-90
2022/11/22 04:15:25;;;;;;;4.55;2.10;;;;;;;;;;4992656;28;20448;-91
2022/11/22 04:17:52;;;;;;;7.43;3.15;;;;;;;;;;5010535;28;20274;-92
2022/11/22 04:23:11;;;;;;;6.88;1.98;;;;;;;;;;5000524;28;20183;-91
2022/11/22 04:25:39;;;;;;;2.70;2.00;;;;;;;;;;4980566;28;20994;-91
2022/11/22 04:28:05;;;;;;;3.35;2.90;;;;;;;;;;4990821;28;20196;-91
2022/11/22 04:33:18;;;;;;;15.88;3.35;;;;;;;;;;5008507;28;20199;-91
2022/11/22 04:35:44;;;;;;;16.27;3.67;;;;;;;;;;4992082;28;20193;-91
2022/11/22 04:38:15;;;;;;;1.63;1.52;;;;;;;;;;4998634;28;20200;-90
2022/11/22 04:40:42;;;;;;;2.65;1.85;;;;;;;;;;5016702;28;20239;-92
2022/11/22 04:45:54;;;;;;;7.07;3.25;;;;;;;;;;5019480;28;20234;-92
2022/11/22 04:48:20;;;;;;;3.17;2.33;;;;;;;;;;5004096;28;20184;-89
2022/11/22 04:53:31;;;;;;;6.38;2.10;;;;;;;;;;5028831;28;20254;-92
2022/11/22 04:56:00;;;;;;;3.72;2.67;;;;;;;;;;5001227;28;20307;-90
2022/11/22 04:58:27;;;;;;;3.33;2.17;;;;;;;;;;4997962;28;20188;-91
2022/11/22 05:00:53;;;;;;;8.68;1.95;;;;;;;;;;4994813;28;20197;-90
2022/11/22 05:03:29;;;;;;;2.33;1.83;;;;;;;;;;4996038;28;20246;-90
2022/11/22 05:05:56;;;;;;;3.03;2.20;;;;;;;;;;5006303;28;20479;-89
2022/11/22 05:08:22;;;;;;;2.70;2.03;;;;;;;;;;4995226;28;20196;-92
2022/11/22 05:10:58;;;;;;;8.57;1.70;;;;;;;;;;4993273;28;20534;-90
2022/11/22 05:13:25;;;;;;;1.80;1.70;;;;;;;;;;4995534;28;20187;-91
2022/11/22 05:15:51;;;;;;;2.60;1.70;;;;;;;;;;4992475;28;20185;-90
2022/11/22 05:18:18;;;;;;;6.45;1.90;;;;;;;;;;4995667;28;20189;-92
2022/11/22 05:20:44;;;;;;;9.10;2.15;;;;;;;;;;4992645;28;20275;-91
2022/11/22 05:25:54;;;;;;;3.20;1.50;;;;;;;;;;5007554;28;20724;-92
2022/11/22 05:28:20;;;;;;;3.63;1.40;;;;;;;;;;4996467;28;20428;-90
2022/11/22 05:30:47;;;;;;;4.68;2.15;;;;;;;;;;4989534;28;20448;-89
2022/11/22 05:33:13;;;;;;;2.53;1.80;;;;;;;;;;5010496;28;20180;-90
2022/11/22 05:35:39;;;;;;;6.87;2.13;;;;;;;;;;5010904;28;20188;-89
2022/11/22 05:38:05;;;;;;;5.30;1.70;;;;;;;;;;4996687;28;20423;-90
2022/11/22 05:40:31;;;;;;;2.13;1.20;;;;;;;;;;4993566;28;20677;-92
2022/11/22 05:42:58;;;;;;;8.57;1.55;;;;;;;;;;4988169;28;21070;-90
2022/11/22 05:45:24;;;;;;;4.35;1.75;;;;;;;;;;4988066;28;20227;-91
2022/11/22 05:47:53;;;;;;;5.73;2.17;;;;;;;;;;5004758;28;20262;-92
2022/11/22 05:50:19;;;;;;;7.80;2.00;;;;;;;;;;4999662;28;20432;-88
2022/11/22 05:52:45;;;;;;;5.80;2.75;;;;;;;;;;5017307;28;20255;-89
2022/11/22 05:55:14;;;;;;;7.77;2.10;;;;;;;;;;4999053;28;20264;-90
2022/11/22 05:57:40;;;;;;;5.07;2.20;;;;;;;;;;4999473;28;20430;-90
2022/11/22 07:55:57;;;;;;;2.65;1.70;;;;;;;;;;4665492;23;20213;-90
2022/11/22 07:58:44;;;;;;;3.90;1.80;;;;;;;;;;5029011;28;20181;-89
2022/11/22 08:01:11;;;;;;;2.75;1.30;;;;;;;;;;5017739;28;20208;-91
2022/11/22 08:03:40;;;;;;;9.18;2.10;;;;;;;;;;5032645;28;20188;-90
2022/11/22 08:06:07;;;;;;;3.50;1.90;;;;;;;;;;5000849;28;20225;-90
2022/11/22 08:08:47;;;;;;;2.97;2.03;;;;;;;;;;5019718;28;20492;-91
2022/11/22 08:11:15;;;;;;;2.00;1.07;;;;;;;;;;4999962;28;20534;-89
2022/11/22 08:13:43;;;;;;;3.47;1.55;;;;;;;;;;5027701;28;20913;-89
2022/11/22 08:16:15;;;;;;;5.20;1.88;;;;;;;;;;5009521;28;20260;-86
2022/11/22 08:18:53;;;;;;;2.83;1.50;;;;;;;;;;5010403;28;20967;-90
2022/11/22 08:21:21;;;;;;;9.40;2.63;;;;;;;;;;4998676;28;20423;-89
2022/11/22 08:23:55;;;;;;;8.68;2.38;;;;;;;;;;5014538;28;20431;-91
2022/11/22 08:26:35;;;;;;;1.88;1.23;;;;;;;;;;5003634;28;20329;-89
2022/11/22 08:29:08;;;;;;;1.33;0.80;;;;;;;;;;5016063;28;20231;-92
2022/11/22 08:31:35;;;;;;;4.33;1.53;;;;;;;;;;5004134;28;20440;-89
2022/11/22 08:34:08;;;;;;;5.00;1.02;;;;;;;;;;5009204;28;20431;-90
2022/11/22 08:36:38;;;;;;;5.20;1.93;;;;;;;;;;5006261;28;20188;-91
2022/11/22 08:39:04;;;;;;;2.50;1.30;;;;;;;;;;5021198;28;20451;-90
2022/11/22 08:41:39;;;;;;;3.23;1.23;;;;;;;;;;5012200;28;20438;-90
2022/11/22 08:44:12;;;;;;;5.83;1.23;;;;;;;;;;5004666;28;20426;-90
2022/11/22 08:59:48;;;;;;;2.40;1.50;;;;;;;;;;5470584;23;10001886;-91
2022/11/22 09:02:18;;;;;;;2.65;1.60;;;;;;;;;;4986480;28;20189;-91
2022/11/22 09:04:44;;;;;;;2.87;1.03;;;;;;;;;;4990992;28;20710;-92
2022/11/22 09:07:13;;;;;;;8.73;1.60;;;;;;;;;;4996671;28;20524;-88
2022/11/22 09:09:39;;;;;;;6.60;1.90;;;;;;;;;;4988266;28;20464;-91
2022/11/22 09:12:06;;;;;;;3.60;1.43;;;;;;;;;;4974998;28;20441;-90
2022/11/22 09:14:35;;;;;;;3.33;1.23;;;;;;;;;;4991377;28;20442;-91
2022/11/22 09:17:06;;;;;;;2.63;1.40;;;;;;;;;;4983641;28;20448;-91
2022/11/22 09:19:53;;;;;;;1.37;1.00;;;;;;;;;;4973040;28;20456;-90
2022/11/22 09:22:22;;;;;;;2.57;1.23;;;;;;;;;;4977243;28;20447;-90
2022/11/22 09:24:50;;;;;;;2.63;1.10;;;;;;;;;;4980102;28;20460;-90
2022/11/22 09:27:20;;;;;;;1.77;0.87;;;;;;;;;;4985155;28;20424;-91
2022/11/22 09:29:52;;;;;;;4.57;1.43;;;;;;;;;;4967374;28;21492;-92
2022/11/22 09:32:18;;;;;;;2.00;1.00;;;;;;;;;;5009967;28;20488;-91
2022/11/22 09:34:44;;;;;;;4.73;1.20;;;;;;;;;;5008897;28;20587;-92
2022/11/22 09:37:10;;;;;;;4.63;1.23;;;;;;;;;;4992625;28;20450;-91
2022/11/22 09:39:36;;;;;;;5.37;1.00;;;;;;;;;;5005736;28;20428;-93
2022/11/22 09:42:09;;;;;;;1.47;0.97;;;;;;;;;;5004124;28;20479;-90
2022/11/22 09:44:49;;;;;;;1.30;1.00;;;;;;;;;;4983885;28;20460;-87
2022/11/22 09:47:18;;;;;;;0.77;0.77;;;;;;;;;;4996340;28;20446;-90
2022/11/22 09:49:59;;;;;;;7.97;5.13;;;;;;;;;;4988183;28;20472;-92
2022/11/22 09:52:57;;;;;;;1.23;1.13;;;;;;;;;;5013894;28;20412;-93
2022/11/22 09:55:46;;;;;;;4.03;1.27;;;;;;;;;;4920231;29;20439;-88
2022/11/22 09:58:34;;;;;;;4.13;1.60;;;;;;;;;;4925416;28;20452;-92
2022/11/22 10:06:34;;;;;;;1.57;1.10;;;;;;;;;;5369796;23;20617;-94
2022/11/22 10:09:00;;;;;;;2.40;1.40;;;;;;;;;;5004932;28;20442;-90
2022/11/22 10:11:26;;;;;;;2.87;1.30;;;;;;;;;;5025831;28;20458;-89
2022/11/22 10:14:02;;;;;;;2.67;1.40;;;;;;;;;;5035234;28;20419;-89
2022/11/22 10:16:31;;;;;;;2.73;1.20;;;;;;;;;;5009656;28;20451;-87
2022/11/22 10:19:16;;;;;;;2.07;1.83;;;;;;;;;;5010512;28;20487;-90
2022/11/22 10:21:43;;;;;;;2.87;1.27;;;;;;;;;;5009161;28;20491;-92
2022/11/22 10:24:15;;;;;;;3.80;2.70;;;;;;;;;;5016843;28;20509;-91
2022/11/22 10:26:42;;;;;;;2.57;1.80;;;;;;;;;;5009796;28;20443;-92
2022/11/22 10:29:29;;;;;;;5.83;1.73;;;;;;;;;;5010499;28;20442;-93
2022/11/22 10:32:11;;;;;;;1.13;0.97;;;;;;;;;;5029138;28;20434;-93
2022/11/22 10:35:01;;;;;;;1.13;1.13;;;;;;;;;;5041909;28;20461;-92
2022/11/22 10:37:35;;;;;;;1.90;1.43;;;;;;;;;;5018049;28;20445;-88
2022/11/22 10:40:07;;;;;;;1.53;1.43;;;;;;;;;;5030023;28;20461;-90
2022/11/22 10:42:47;;;;;;;2.30;1.60;;;;;;;;;;5044210;28;20593;-91
2022/11/22 10:53:20;;;;;;;2.87;1.30;;;;;;;;;;5770074;23;20481;-91
2022/11/22 13:54:12;;;;;;;3.60;0.68;;;;;;;;;;5618955;23;10002031;-89
2022/11/22 13:56:38;;;;;;;1.33;0.77;;;;;;;;;;5014937;28;20478;-87
2022/11/22 13:59:12;;;;;;;1.40;0.80;;;;;;;;;;5025013;28;20441;-86
2022/11/22 14:01:38;;;;;;;2.43;1.40;;;;;;;;;;5008656;28;20479;-89
2022/11/22 14:04:19;;;;;;;3.13;0.80;;;;;;;;;;4997948;28;20442;-89
2022/11/22 14:07:06;;;;;;;2.13;0.80;;;;;;;;;;5007217;28;20458;-88
2022/11/22 14:09:40;;;;;;;1.90;1.10;;;;;;;;;;5020096;28;21082;-88
2022/11/22 14:12:24;;;;;;;2.50;1.10;;;;;;;;;;5033292;28;20459;-87
2022/11/22 14:15:08;;;;;;;0.90;0.90;;;;;;;;;;5014033;28;20530;-86
2022/11/22 14:17:52;;;;;;;1.40;1.27;;;;;;;;;;5024236;28;20215;-89
2022/11/22 14:20:24;;;;;;;1.70;0.80;;;;;;;;;;4996231;28;20500;-88
2022/11/22 14:23:11;;;;;;;0.77;0.77;;;;;;;;;;4998912;28;21008;-89
2022/11/22 14:25:47;;;;;;;0.50;0.50;;;;;;;;;;4986943;28;20454;-90
2022/11/22 14:28:19;;;;;;;0.60;0.60;;;;;;;;;;5018312;28;20786;-88
2022/11/22 14:30:49;;;;;;;1.63;0.80;;;;;;;;;;5030188;28;20475;-89
2022/11/22 14:33:23;;;;;;;0.60;0.60;;;;;;;;;;5035548;28;20426;-88
2022/11/22 14:36:10;;;;;;;0.70;0.70;;;;;;;;;;5018869;28;20455;-89
2022/11/22 14:38:41;;;;;;;1.33;1.23;;;;;;;;;;5009402;28;20196;-87
2022/11/22 14:41:26;;;;;;;1.33;0.50;;;;;;;;;;5008372;28;20445;-88
2022/11/22 14:44:02;;;;;;;0.65;0.65;;;;;;;;;;5000799;28;20191;-87
2022/11/22 14:46:31;;;;;;;1.50;0.50;;;;;;;;;;5011465;28;20519;-87
2022/11/22 14:49:05;;;;;;;0.90;0.90;;;;;;;;;;5003152;28;20941;-85
2022/11/22 14:51:34;;;;;;;0.73;0.73;;;;;;;;;;4987496;28;20431;-87
2022/11/22 14:54:02;;;;;;;0.70;0.70;;;;;;;;;;5025688;28;20445;-89
2022/11/22 14:56:35;;;;;;;0.80;0.80;;;;;;;;;;5035406;28;20842;-90
2022/11/22 14:59:01;;;;;;;1.30;0.90;;;;;;;;;;5035512;28;20527;-90
2022/11/22 15:01:59;;;;;;;0.70;0.70;;;;;;;;;;5039640;28;20457;-91
2022/11/22 16:08:57;;;;;;;0.70;0.70;;;;;;;;;;5818471;23;20498;-88
2022/11/22 16:11:41;;;;;;;0.60;0.60;;;;;;;;;;5001873;28;20193;-86
2022/11/22 16:14:26;;;;;;;0.52;0.52;;;;;;;;;;5016524;28;20458;-87
2022/11/22 16:16:52;;;;;;;0.30;0.30;;;;;;;;;;5020429;28;20212;-87
2022/11/22 16:19:23;;;;;;;0.70;0.70;;;;;;;;;;5001053;28;20621;-87
2022/11/22 16:21:56;;;;;;;0.50;0.50;;;;;;;;;;5022660;28;20485;-88
2022/11/22 16:24:29;;;;;;;0.50;0.50;;;;;;;;;;5029615;28;20432;-89
2022/11/22 16:27:11;;;;;;;0.50;0.40;;;;;;;;;;5024475;28;20439;-87
2022/11/22 16:50:24;;;;;;;1.13;1.00;;;;;;;;;;6014947;23;20993;-86
2022/11/22 17:06:00;;;;;;;;;;;;;;;;;;;;;
2022/11/22 18:59:11;;;;;;;2.37;2.17;;;;;;;;;;6059813;23;20477;-93
